sensor_id;sensor_type;location;lat;lon;timestamp;pressure;altitude;pressure_sealevel;temperature;humidity
25350;BME280;13302;48.796;11.978;2023-03-25T00:00:47;96235.91;;;11.61;36.48
25350;BME280;13302;48.796;11.978;2023-03-25T00:03:35;96224.75;;;11.54;36.17
25350;BME280;13302;48.796;11.978;2023-03-25T00:06:27;96230.19;;;11.50;36.21
25350;BME280;13302;48.796;11.978;2023-03-25T00:09:14;96232.16;;;11.50;36.47
25350;BME280;13302;48.796;11.978;2023-03-25T00:12:01;96226.63;;;11.50;36.44
25350;BME280;13302;48.796;11.978;2023-03-25T00:14:48;96224.63;;;11.47;36.45
25350;BME280;13302;48.796;11.978;2023-03-25T00:17:40;96233.34;;;11.49;36.54
25350;BME280;13302;48.796;11.978;2023-03-25T00:20:28;96227.75;;;11.45;36.35
25350;BME280;13302;48.796;11.978;2023-03-25T00:23:16;96219.03;;;11.43;36.21
25350;BME280;13302;48.796;11.978;2023-03-25T00:26:04;96223.78;;;11.43;36.40
25350;BME280;13302;48.796;11.978;2023-03-25T00:28:51;96212.69;;;11.43;36.50
25350;BME280;13302;48.796;11.978;2023-03-25T00:31:38;96215.09;;;11.44;36.46
25350;BME280;13302;48.796;11.978;2023-03-25T00:34:26;96224.94;;;11.42;36.62
25350;BME280;13302;48.796;11.978;2023-03-25T00:37:14;96225.72;;;11.42;36.58
25350;BME280;13302;48.796;11.978;2023-03-25T00:40:07;96228.50;;;11.42;36.41
25350;BME280;13302;48.796;11.978;2023-03-25T00:42:55;96231.28;;;11.42;36.38
25350;BME280;13302;48.796;11.978;2023-03-25T00:45:43;96229.31;;;11.43;36.58
25350;BME280;13302;48.796;11.978;2023-03-25T00:48:31;96222.53;;;11.40;36.45
25350;BME280;13302;48.796;11.978;2023-03-25T00:51:19;96229.66;;;11.41;36.38
25350;BME280;13302;48.796;11.978;2023-03-25T00:54:08;96232.00;;;11.39;36.69
25350;BME280;13302;48.796;11.978;2023-03-25T00:56:55;96229.97;;;11.36;36.89
25350;BME280;13302;48.796;11.978;2023-03-25T00:59:42;96239.88;;;11.37;36.83
25350;BME280;13302;48.796;11.978;2023-03-25T01:02:29;96236.34;;;11.40;36.98
25350;BME280;13302;48.796;11.978;2023-03-25T01:05:17;96233.59;;;11.40;36.74
25350;BME280;13302;48.796;11.978;2023-03-25T01:08:04;96230.09;;;11.43;36.94
25350;BME280;13302;48.796;11.978;2023-03-25T01:10:55;96229.66;;;11.41;37.02
25350;BME280;13302;48.796;11.978;2023-03-25T01:13:42;96229.66;;;11.41;37.39
25350;BME280;13302;48.796;11.978;2023-03-25T01:16:29;96236.34;;;11.40;37.51
25350;BME280;13302;48.796;11.978;2023-03-25T01:19:16;96232.38;;;11.38;37.61
25350;BME280;13302;48.796;11.978;2023-03-25T01:22:04;96233.19;;;11.38;37.52
25350;BME280;13302;48.796;11.978;2023-03-25T01:24:51;96228.75;;;11.34;37.95
25350;BME280;13302;48.796;11.978;2023-03-25T01:27:38;96233.94;;;11.35;37.69
25350;BME280;13302;48.796;11.978;2023-03-25T01:30:25;96226.78;;;11.34;37.87
25350;BME280;13302;48.796;11.978;2023-03-25T01:33:14;96204.66;;;11.34;37.97
25350;BME280;13302;48.796;11.978;2023-03-25T01:36:01;96199.13;;;11.34;38.15
25350;BME280;13302;48.796;11.978;2023-03-25T01:38:49;96182.16;;;11.36;37.77
25350;BME280;13302;48.796;11.978;2023-03-25T01:41:36;96184.06;;;11.32;37.96
25350;BME280;13302;48.796;11.978;2023-03-25T01:47:25;96195.19;;;11.35;38.29
25350;BME280;13302;48.796;11.978;2023-03-25T01:50:12;96199.91;;;11.35;37.89
25350;BME280;13302;48.796;11.978;2023-03-25T01:53:02;96187.19;;;11.30;37.76
25350;BME280;13302;48.796;11.978;2023-03-25T01:55:51;96184.06;;;11.32;38.21
25350;BME280;13302;48.796;11.978;2023-03-25T01:58:40;96175.69;;;11.28;38.11
25350;BME280;13302;48.796;11.978;2023-03-25T02:01:30;96167.38;;;11.28;38.00
25350;BME280;13302;48.796;11.978;2023-03-25T02:04:30;96170.53;;;11.27;38.00
25350;BME280;13302;48.796;11.978;2023-03-25T02:07:26;96166.63;;;11.28;38.12
25350;BME280;13302;48.796;11.978;2023-03-25T02:10:17;96168.19;;;11.29;38.02
25350;BME280;13302;48.796;11.978;2023-03-25T02:13:05;96168.19;;;11.29;38.05
25350;BME280;13302;48.796;11.978;2023-03-25T02:16:09;96170.59;;;11.30;37.84
25350;BME280;13302;48.796;11.978;2023-03-25T02:32:14;96162.59;;;11.25;37.93
25350;BME280;13302;48.796;11.978;2023-03-25T02:44:51;96168.19;;;11.29;37.83
25350;BME280;13302;48.796;11.978;2023-03-25T02:47:36;96173.78;;;11.32;37.63
25350;BME280;13302;48.796;11.978;2023-03-25T02:50:42;96178.94;;;11.34;37.71
25350;BME280;13302;48.796;11.978;2023-03-25T02:53:34;96186.88;;;11.35;37.80
25350;BME280;13302;48.796;11.978;2023-03-25T02:56:23;96182.56;;;11.38;37.79
25350;BME280;13302;48.796;11.978;2023-03-25T02:59:12;96183.78;;;11.40;38.13
25350;BME280;13302;48.796;11.978;2023-03-25T03:02:01;96190.91;;;11.41;37.84
25350;BME280;13302;48.796;11.978;2023-03-25T03:04:54;96198.84;;;11.43;38.04
25350;BME280;13302;48.796;11.978;2023-03-25T03:07:45;96192.06;;;11.40;37.81
25350;BME280;13302;48.796;11.978;2023-03-25T03:13:43;96192.41;;;11.35;38.16
25350;BME280;13302;48.796;11.978;2023-03-25T03:16:55;96189.97;;;11.30;37.97
25350;BME280;13302;48.796;11.978;2023-03-25T03:20:04;96181.19;;;11.25;38.03
25350;BME280;13302;48.796;11.978;2023-03-25T03:26:25;96177.50;;;11.17;38.24
25350;BME280;13302;48.796;11.978;2023-03-25T03:29:19;96180.56;;;11.12;38.12
25350;BME280;13302;48.796;11.978;2023-03-25T03:32:38;96178.91;;;11.08;38.13
25350;BME280;13302;48.796;11.978;2023-03-25T03:35:44;96184.78;;;11.02;38.48
25350;BME280;13302;48.796;11.978;2023-03-25T03:38:43;96175.63;;;10.98;38.59
25350;BME280;13302;48.796;11.978;2023-03-25T03:41:35;96170.91;;;10.99;38.30
25350;BME280;13302;48.796;11.978;2023-03-25T03:44:28;96167.69;;;10.97;38.44
25350;BME280;13302;48.796;11.978;2023-03-25T03:47:24;96169.59;;;10.93;38.42
25350;BME280;13302;48.796;11.978;2023-03-25T03:50:25;96169.56;;;10.89;38.63
25350;BME280;13302;48.796;11.978;2023-03-25T03:53:19;96178.22;;;10.88;38.78
25350;BME280;13302;48.796;11.978;2023-03-25T03:56:14;96177.00;;;10.85;38.81
25350;BME280;13302;48.796;11.978;2023-03-25T03:59:13;96182.53;;;10.85;38.65
25350;BME280;13302;48.796;11.978;2023-03-25T04:02:10;96179.75;;;10.85;38.58
25350;BME280;13302;48.796;11.978;2023-03-25T04:05:00;96173.44;;;10.85;38.42
25350;BME280;13302;48.796;11.978;2023-03-25T04:07:52;96179.31;;;10.83;38.69
25350;BME280;13302;48.796;11.978;2023-03-25T04:10:54;96178.44;;;10.79;38.36
25350;BME280;13302;48.796;11.978;2023-03-25T04:13:45;96183.19;;;10.79;38.67
25350;BME280;13302;48.796;11.978;2023-03-25T04:16:35;96179.56;;;10.75;38.44
25350;BME280;13302;48.796;11.978;2023-03-25T04:19:23;96189.03;;;10.74;38.51
25350;BME280;13302;48.796;11.978;2023-03-25T04:22:11;96178.34;;;10.72;38.54
25350;BME280;13302;48.796;11.978;2023-03-25T04:24:59;96179.44;;;10.68;38.39
25350;BME280;13302;48.796;11.978;2023-03-25T04:27:47;96182.16;;;10.64;38.65
25350;BME280;13302;48.796;11.978;2023-03-25T04:30:39;96174.94;;;10.59;38.26
25350;BME280;13302;48.796;11.978;2023-03-25T04:33:26;96173.78;;;10.61;38.26
25350;BME280;13302;48.796;11.978;2023-03-25T04:36:17;96170.13;;;10.56;38.46
25350;BME280;13302;48.796;11.978;2023-03-25T04:39:06;96177.97;;;10.54;38.26
25350;BME280;13302;48.796;11.978;2023-03-25T04:41:53;96175.59;;;10.53;38.18
25350;BME280;13302;48.796;11.978;2023-03-25T04:44:40;96174.81;;;10.52;38.16
25350;BME280;13302;48.796;11.978;2023-03-25T04:47:27;96175.16;;;10.51;38.42
25350;BME280;13302;48.796;11.978;2023-03-25T04:50:19;96166.06;;;10.50;38.45
25350;BME280;13302;48.796;11.978;2023-03-25T04:53:07;96171.59;;;10.50;38.26
25350;BME280;13302;48.796;11.978;2023-03-25T04:55:55;96163.63;;;10.45;38.19
25350;BME280;13302;48.796;11.978;2023-03-25T04:58:43;96175.03;;;10.44;38.05
25350;BME280;13302;48.796;11.978;2023-03-25T05:01:31;96174.69;;;10.45;37.99
25350;BME280;13302;48.796;11.978;2023-03-25T05:04:18;96171.47;;;10.43;38.12
25350;BME280;13302;48.796;11.978;2023-03-25T05:07:06;96168.28;;;10.41;38.32
25350;BME280;13302;48.796;11.978;2023-03-25T05:09:53;96182.88;;;10.42;38.06
25350;BME280;13302;48.796;11.978;2023-03-25T05:12:40;96184.41;;;10.39;38.13
25350;BME280;13302;48.796;11.978;2023-03-25T05:15:27;96181.59;;;10.36;38.01
25350;BME280;13302;48.796;11.978;2023-03-25T05:18:17;96188.34;;;10.38;37.84
25350;BME280;13302;48.796;11.978;2023-03-25T05:21:04;96192.66;;;10.36;37.61
25350;BME280;13302;48.796;11.978;2023-03-25T05:23:51;96197.88;;;10.41;37.27
25350;BME280;13302;48.796;11.978;2023-03-25T05:26:40;96189.44;;;10.34;37.52
25350;BME280;13302;48.796;11.978;2023-03-25T05:29:27;96173.25;;;10.32;37.20
25350;BME280;13302;48.796;11.978;2023-03-25T05:32:20;96188.97;;;10.28;37.40
25350;BME280;13302;48.796;11.978;2023-03-25T05:35:07;96179.81;;;10.24;36.98
25350;BME280;13302;48.796;11.978;2023-03-25T05:37:54;96182.84;;;10.19;37.42
25350;BME280;13302;48.796;11.978;2023-03-25T05:40:43;96189.97;;;10.20;37.04
25350;BME280;13302;48.796;11.978;2023-03-25T05:43:31;96198.19;;;10.17;37.05
25350;BME280;13302;48.796;11.978;2023-03-25T05:46:21;96206.03;;;10.14;37.20
25350;BME280;13302;48.796;11.978;2023-03-25T05:49:08;96201.78;;;10.17;37.25
25350;BME280;13302;48.796;11.978;2023-03-25T05:51:55;96189.19;;;10.20;37.23
25350;BME280;13302;48.796;11.978;2023-03-25T05:54:43;96184.47;;;10.20;37.36
25350;BME280;13302;48.796;11.978;2023-03-25T05:57:31;96195.06;;;10.18;37.34
25350;BME280;13302;48.796;11.978;2023-03-25T06:00:18;96189.97;;;10.20;37.17
25350;BME280;13302;48.796;11.978;2023-03-25T06:03:09;96192.47;;;10.25;37.31
25350;BME280;13302;48.796;11.978;2023-03-25T06:05:57;96216.13;;;10.26;37.52
25350;BME280;13302;48.796;11.978;2023-03-25T06:08:48;96205.81;;;10.23;37.24
25350;BME280;13302;48.796;11.978;2023-03-25T06:11:35;96222.91;;;10.29;37.15
25350;BME280;13302;48.796;11.978;2023-03-25T06:14:26;96243.97;;;10.18;37.50
25350;BME280;13302;48.796;11.978;2023-03-25T06:17:14;96256.06;;;10.29;37.47
25350;BME280;13302;48.796;11.978;2023-03-25T06:20:02;96258.50;;;10.34;37.42
25350;BME280;13302;48.796;11.978;2023-03-25T06:22:56;96275.47;;;10.32;37.11
25350;BME280;13302;48.796;11.978;2023-03-25T06:25:43;96266.78;;;10.34;37.29
25350;BME280;13302;48.796;11.978;2023-03-25T06:28:30;96276.97;;;10.30;37.01
25350;BME280;13302;48.796;11.978;2023-03-25T06:31:23;96270.22;;;10.27;37.14
25350;BME280;13302;48.796;11.978;2023-03-25T06:34:12;96276.91;;;10.26;37.22
25350;BME280;13302;48.796;11.978;2023-03-25T06:37:00;96282.50;;;10.30;37.12
25350;BME280;13302;48.796;11.978;2023-03-25T06:39:47;96279.75;;;10.30;37.16
25350;BME280;13302;48.796;11.978;2023-03-25T06:42:39;96289.63;;;10.31;37.21
25350;BME280;13302;48.796;11.978;2023-03-25T06:45:49;96282.00;;;10.24;37.24
25350;BME280;13302;48.796;11.978;2023-03-25T06:48:44;96296.69;;;10.28;37.20
25350;BME280;13302;48.796;11.978;2023-03-25T06:51:31;96292.41;;;10.31;37.14
25350;BME280;13302;48.796;11.978;2023-03-25T06:54:18;96297.56;;;10.32;37.14
25350;BME280;13302;48.796;11.978;2023-03-25T06:57:05;96293.66;;;10.33;37.04
25350;BME280;13302;48.796;11.978;2023-03-25T06:59:52;96289.28;;;10.32;37.13
25350;BME280;13302;48.796;11.978;2023-03-25T07:02:39;96296.41;;;10.33;37.49
25350;BME280;13302;48.796;11.978;2023-03-25T07:05:27;96299.59;;;10.35;37.50
25350;BME280;13302;48.796;11.978;2023-03-25T07:08:14;96294.00;;;10.32;37.26
25350;BME280;13302;48.796;11.978;2023-03-25T07:11:03;96295.97;;;10.31;37.33
25350;BME280;13302;48.796;11.978;2023-03-25T07:13:51;96308.69;;;10.36;37.35
25350;BME280;13302;48.796;11.978;2023-03-25T07:16:39;96307.88;;;10.35;37.16
25350;BME280;13302;48.796;11.978;2023-03-25T07:19:26;96309.22;;;10.41;37.29
25350;BME280;13302;48.796;11.978;2023-03-25T07:22:13;96311.25;;;10.44;37.25
25350;BME280;13302;48.796;11.978;2023-03-25T07:25:01;96316.31;;;10.42;37.54
25350;BME280;13302;48.796;11.978;2023-03-25T07:27:47;96318.00;;;10.47;37.24
25350;BME280;13302;48.796;11.978;2023-03-25T07:30:37;96310.84;;;10.46;37.44
25350;BME280;13302;48.796;11.978;2023-03-25T07:33:24;96303.09;;;10.51;37.28
25350;BME280;13302;48.796;11.978;2023-03-25T07:36:11;96311.03;;;10.53;37.29
25350;BME280;13302;48.796;11.978;2023-03-25T07:38:59;96310.63;;;10.54;37.44
25350;BME280;13302;48.796;11.978;2023-03-25T07:41:46;96311.09;;;10.56;37.21
25350;BME280;13302;48.796;11.978;2023-03-25T07:44:47;96317.78;;;10.55;37.53
25350;BME280;13302;48.796;11.978;2023-03-25T07:47:34;96312.97;;;10.52;37.25
25350;BME280;13302;48.796;11.978;2023-03-25T07:50:22;96305.56;;;10.56;37.32
25350;BME280;13302;48.796;11.978;2023-03-25T07:53:11;96309.59;;;10.59;37.33
25350;BME280;13302;48.796;11.978;2023-03-25T07:55:58;96305.72;;;10.64;37.55
25350;BME280;13302;48.796;11.978;2023-03-25T07:58:45;96315.34;;;10.70;37.82
25350;BME280;13302;48.796;11.978;2023-03-25T08:01:33;96322.16;;;10.76;37.47
25350;BME280;13302;48.796;11.978;2023-03-25T08:04:20;96315.19;;;10.82;37.26
25350;BME280;13302;48.796;11.978;2023-03-25T08:07:07;96311.69;;;10.85;37.67
25350;BME280;13302;48.796;11.978;2023-03-25T08:09:54;96309.41;;;10.90;37.31
25350;BME280;13302;48.796;11.978;2023-03-25T08:12:42;96309.53;;;10.97;37.21
25350;BME280;13302;48.796;11.978;2023-03-25T08:15:29;96325.84;;;11.02;36.82
25350;BME280;13302;48.796;11.978;2023-03-25T08:18:17;96307.28;;;11.03;36.67
25350;BME280;13302;48.796;11.978;2023-03-25T08:21:04;96308.88;;;11.04;36.54
25350;BME280;13302;48.796;11.978;2023-03-25T08:23:52;96309.00;;;11.11;36.24
25350;BME280;13302;48.796;11.978;2023-03-25T08:26:44;96312.25;;;11.17;36.15
25350;BME280;13302;48.796;11.978;2023-03-25T08:29:31;96299.34;;;11.24;36.13
25350;BME280;13302;48.796;11.978;2023-03-25T08:32:20;96311.28;;;11.28;35.84
25350;BME280;13302;48.796;11.978;2023-03-25T08:35:07;96343.25;;;11.26;34.83
25350;BME280;13302;48.796;11.978;2023-03-25T08:37:54;96311.28;;;11.28;34.80
25350;BME280;13302;48.796;11.978;2023-03-25T08:40:41;96322.78;;;11.30;34.91
25350;BME280;13302;48.796;11.978;2023-03-25T08:43:29;96326.34;;;11.31;34.81
25350;BME280;13302;48.796;11.978;2023-03-25T08:46:16;96336.31;;;11.35;34.72
25350;BME280;13302;48.796;11.978;2023-03-25T08:49:03;96321.75;;;11.38;34.50
25350;BME280;13302;48.796;11.978;2023-03-25T08:51:50;96325.66;;;11.37;33.84
25350;BME280;13302;48.796;11.978;2023-03-25T08:54:37;96312.94;;;11.33;34.11
25350;BME280;13302;48.796;11.978;2023-03-25T08:57:25;96318.91;;;11.35;33.96
25350;BME280;13302;48.796;11.978;2023-03-25T09:00:12;96315.34;;;11.34;34.46
25350;BME280;13302;48.796;11.978;2023-03-25T09:02:59;96319.72;;;11.35;34.20
25350;BME280;13302;48.796;11.978;2023-03-25T09:05:47;96322.47;;;11.35;34.33
25350;BME280;13302;48.796;11.978;2023-03-25T09:08:35;96323.19;;;11.32;34.02
25350;BME280;13302;48.796;11.978;2023-03-25T09:11:23;96322.44;;;11.32;34.17
25350;BME280;13302;48.796;11.978;2023-03-25T09:14:22;96307.03;;;11.34;33.97
25350;BME280;13302;48.796;11.978;2023-03-25T09:17:08;96303.53;;;11.37;34.01
25350;BME280;13302;48.796;11.978;2023-03-25T09:19:56;96298.78;;;11.38;34.33
25350;BME280;13302;48.796;11.978;2023-03-25T09:22:44;96306.75;;;11.39;34.17
25350;BME280;13302;48.796;11.978;2023-03-25T09:25:32;96303.22;;;11.42;34.05
25350;BME280;13302;48.796;11.978;2023-03-25T09:28:19;96285.88;;;11.45;33.97
25350;BME280;13302;48.796;11.978;2023-03-25T09:31:06;96289.09;;;11.47;33.82
25350;BME280;13302;48.796;11.978;2023-03-25T09:33:55;96287.13;;;11.48;33.82
25350;BME280;13302;48.796;11.978;2023-03-25T09:36:42;96300.28;;;11.55;33.35
25350;BME280;13302;48.796;11.978;2023-03-25T09:39:31;96277.84;;;11.60;32.83
25350;BME280;13302;48.796;11.978;2023-03-25T09:42:36;96287.31;;;11.59;33.28
25350;BME280;13302;48.796;11.978;2023-03-25T09:45:39;96290.88;;;11.59;33.36
25350;BME280;13302;48.796;11.978;2023-03-25T09:48:35;96288.41;;;11.54;33.28
25350;BME280;13302;48.796;11.978;2023-03-25T09:51:28;96286.09;;;11.56;32.89
25350;BME280;13302;48.796;11.978;2023-03-25T09:54:24;96286.91;;;11.57;33.14
25350;BME280;13302;48.796;11.978;2023-03-25T09:57:15;96292.53;;;11.64;32.99
25350;BME280;13302;48.796;11.978;2023-03-25T10:00:04;96286.16;;;11.60;32.84
25350;BME280;13302;48.796;11.978;2023-03-25T10:02:57;96280.16;;;11.58;32.52
25350;BME280;13302;48.796;11.978;2023-03-25T10:06:02;96270.19;;;11.53;32.68
25350;BME280;13302;48.796;11.978;2023-03-25T10:12:23;96267.06;;;11.55;32.57
25350;BME280;13302;48.796;11.978;2023-03-25T10:21:50;96258.78;;;11.55;32.91
25350;BME280;13302;48.796;11.978;2023-03-25T10:24:45;96259.66;;;11.62;32.71
25350;BME280;13302;48.796;11.978;2023-03-25T10:27:39;96272.00;;;11.65;32.86
25350;BME280;13302;48.796;11.978;2023-03-25T10:30:31;96270.94;;;11.73;32.73
25350;BME280;13302;48.796;11.978;2023-03-25T10:33:29;96258.78;;;11.81;33.07
25350;BME280;13302;48.796;11.978;2023-03-25T10:36:27;96254.09;;;11.85;32.98
25350;BME280;13302;48.796;11.978;2023-03-25T10:39:18;96243.50;;;11.94;33.14
25350;BME280;13302;48.796;11.978;2023-03-25T10:42:23;96251.50;;;11.99;33.11
25350;BME280;13302;48.796;11.978;2023-03-25T10:45:13;96245.00;;;12.14;33.25
25350;BME280;13302;48.796;11.978;2023-03-25T10:48:12;96233.56;;;12.19;32.81
25350;BME280;13302;48.796;11.978;2023-03-25T10:51:07;96246.31;;;12.27;32.67
25350;BME280;13302;48.796;11.978;2023-03-25T10:53:56;96231.81;;;12.37;32.45
25350;BME280;13302;48.796;11.978;2023-03-25T10:56:50;96229.53;;;12.43;32.25
25350;BME280;13302;48.796;11.978;2023-03-25T11:00:05;96220.47;;;12.46;32.19
25350;BME280;13302;48.796;11.978;2023-03-25T11:02:58;96222.50;;;12.53;32.38
25350;BME280;13302;48.796;11.978;2023-03-25T11:05:48;96221.38;;;12.57;32.24
25350;BME280;13302;48.796;11.978;2023-03-25T11:08:35;96219.38;;;12.54;31.66
25350;BME280;13302;48.796;11.978;2023-03-25T11:11:30;96184.13;;;12.55;32.03
25350;BME280;13302;48.796;11.978;2023-03-25T11:14:26;96211.13;;;12.61;31.87
25350;BME280;13302;48.796;11.978;2023-03-25T11:17:15;96196.88;;;12.63;32.18
25350;BME280;13302;48.796;11.978;2023-03-25T11:20:06;96205.59;;;12.65;31.68
25350;BME280;13302;48.796;11.978;2023-03-25T11:23:04;96211.97;;;12.69;31.91
25350;BME280;13302;48.796;11.978;2023-03-25T11:25:53;96198.53;;;12.67;31.77
25350;BME280;13302;48.796;11.978;2023-03-25T11:28:44;96205.59;;;12.65;32.09
25350;BME280;13302;48.796;11.978;2023-03-25T11:31:34;96214.25;;;12.60;31.88
25350;BME280;13302;48.796;11.978;2023-03-25T11:34:23;96220.06;;;12.48;32.06
25350;BME280;13302;48.796;11.978;2023-03-25T11:40:13;96213.91;;;12.31;32.44
25350;BME280;13302;48.796;11.978;2023-03-25T11:43:01;96214.63;;;12.25;32.30
25350;BME280;13302;48.796;11.978;2023-03-25T11:45:50;96214.94;;;12.16;33.43
25350;BME280;13302;48.796;11.978;2023-03-25T11:48:39;96222.41;;;12.12;33.42
25350;BME280;13302;48.796;11.978;2023-03-25T11:51:28;96228.69;;;12.09;34.01
25350;BME280;13302;48.796;11.978;2023-03-25T11:54:17;96207.22;;;12.03;34.39
25350;BME280;13302;48.796;11.978;2023-03-25T11:57:09;96198.03;;;11.95;34.80
25350;BME280;13302;48.796;11.978;2023-03-25T12:00:02;96196.09;;;11.99;35.41
25350;BME280;13302;48.796;11.978;2023-03-25T12:03:01;96201.28;;;12.01;35.47
25350;BME280;13302;48.796;11.978;2023-03-25T12:06:16;96222.56;;;11.93;35.70
25350;BME280;13302;48.796;11.978;2023-03-25T12:09:09;96200.00;;;11.94;35.45
25350;BME280;13302;48.796;11.978;2023-03-25T12:12:03;96202.31;;;11.89;35.66
25350;BME280;13302;48.796;11.978;2023-03-25T12:18:47;96214.34;;;11.74;35.63
25350;BME280;13302;48.796;11.978;2023-03-25T12:24:35;96187.25;;;11.57;35.79
25350;BME280;13302;48.796;11.978;2023-03-25T12:34:12;96169.38;;;11.54;37.01
25350;BME280;13302;48.796;11.978;2023-03-25T12:37:53;96164.66;;;11.55;37.01
25350;BME280;13302;48.796;11.978;2023-03-25T12:44:01;96145.47;;;11.69;37.16
25350;BME280;13302;48.796;11.978;2023-03-25T12:47:08;96162.59;;;11.78;37.31
25350;BME280;13302;48.796;11.978;2023-03-25T12:50:14;96161.50;;;11.86;37.66
25350;BME280;13302;48.796;11.978;2023-03-25T12:59:54;96165.56;;;11.92;36.90
25350;BME280;13302;48.796;11.978;2023-03-25T13:08:36;96193.97;;;11.85;36.24
25350;BME280;13302;48.796;11.978;2023-03-25T13:11:32;96192.19;;;11.74;36.29
25350;BME280;13302;48.796;11.978;2023-03-25T13:14:27;96190.19;;;11.71;36.31
25350;BME280;13302;48.796;11.978;2023-03-25T13:17:23;96196.38;;;11.61;36.54
25350;BME280;13302;48.796;11.978;2023-03-25T13:20:11;96185.59;;;11.52;36.95
25350;BME280;13302;48.796;11.978;2023-03-25T13:23:03;96195.72;;;11.44;36.67
25350;BME280;13302;48.796;11.978;2023-03-25T13:25:55;96204.34;;;11.39;37.01
25350;BME280;13302;48.796;11.978;2023-03-25T13:28:58;96208.22;;;11.35;37.28
25350;BME280;13302;48.796;11.978;2023-03-25T13:31:46;96184.06;;;11.32;37.78
25350;BME280;13302;48.796;11.978;2023-03-25T13:34:51;96159.84;;;11.25;37.63
25350;BME280;13302;48.796;11.978;2023-03-25T13:37:45;96172.50;;;11.26;37.55
25350;BME280;13302;48.796;11.978;2023-03-25T13:40:50;96188.31;;;11.26;37.51
25350;BME280;13302;48.796;11.978;2023-03-25T13:43:48;96177.69;;;11.28;37.20
25350;BME280;13302;48.796;11.978;2023-03-25T13:46:40;96180.06;;;11.29;37.25
25350;BME280;13302;48.796;11.978;2023-03-25T13:49:33;96173.78;;;11.32;37.43
25350;BME280;13302;48.796;11.978;2023-03-25T13:52:25;96179.38;;;11.36;37.38
25350;BME280;13302;48.796;11.978;2023-03-25T13:55:21;96183.38;;;11.38;37.29
25350;BME280;13302;48.796;11.978;2023-03-25T13:58:28;96180.28;;;11.43;37.09
25350;BME280;13302;48.796;11.978;2023-03-25T14:04:52;96191.34;;;11.43;37.17
25350;BME280;13302;48.796;11.978;2023-03-25T14:07:55;96193.69;;;11.41;37.37
25350;BME280;13302;48.796;11.978;2023-03-25T14:10:53;96188.16;;;11.41;37.47
25350;BME280;13302;48.796;11.978;2023-03-25T14:13:52;96175.16;;;11.45;37.63
25350;BME280;13302;48.796;11.978;2023-03-25T14:16:44;96182.31;;;11.46;37.92
25350;BME280;13302;48.796;11.978;2023-03-25T14:19:35;96175.31;;;11.53;37.92
25350;BME280;13302;48.796;11.978;2023-03-25T14:22:30;96178.94;;;11.57;37.47
25350;BME280;13302;48.796;11.978;2023-03-25T14:25:20;96187.66;;;11.59;37.71
25350;BME280;13302;48.796;11.978;2023-03-25T14:28:12;96180.50;;;11.58;37.41
25350;BME280;13302;48.796;11.978;2023-03-25T14:31:07;96189.56;;;11.55;37.45
25350;BME280;13302;48.796;11.978;2023-03-25T14:39:41;96180.50;;;11.58;37.58
25350;BME280;13302;48.796;11.978;2023-03-25T14:42:29;96178.19;;;11.60;37.58
25350;BME280;13302;48.796;11.978;2023-03-25T14:45:37;96171.88;;;11.63;37.80
25350;BME280;13302;48.796;11.978;2023-03-25T14:48:31;96160.91;;;11.70;37.83
25350;BME280;13302;48.796;11.978;2023-03-25T14:54:40;96158.66;;;11.79;37.82
25350;BME280;13302;48.796;11.978;2023-03-25T14:57:38;96146.88;;;11.85;37.79
25350;BME280;13302;48.796;11.978;2023-03-25T15:00:29;96140.63;;;11.92;37.45
25350;BME280;13302;48.796;11.978;2023-03-25T15:03:20;96136.72;;;11.96;37.45
25350;BME280;13302;48.796;11.978;2023-03-25T15:06:15;96125.66;;;11.96;37.43
25350;BME280;13302;48.796;11.978;2023-03-25T15:09:05;96117.38;;;12.00;37.13
25350;BME280;13302;48.796;11.978;2023-03-25T15:12:00;96112.22;;;12.02;37.07
25350;BME280;13302;48.796;11.978;2023-03-25T15:14:49;96109.91;;;12.04;37.09
25350;BME280;13302;48.796;11.978;2023-03-25T15:17:44;96113.84;;;12.03;36.78
25350;BME280;13302;48.796;11.978;2023-03-25T15:20:32;96140.38;;;12.04;37.11
25350;BME280;13302;48.796;11.978;2023-03-25T15:26:31;96224.53;;;11.92;37.03
25350;BME280;13302;48.796;11.978;2023-03-25T15:38:40;96151.91;;;11.50;36.47
25350;BME280;13302;48.796;11.978;2023-03-25T15:41:59;96161.59;;;11.37;36.69
25350;BME280;13302;48.796;11.978;2023-03-25T15:45:20;96164.25;;;11.30;36.95
25350;BME280;13302;48.796;11.978;2023-03-25T15:51:36;96167.34;;;11.25;36.62
25350;BME280;13302;48.796;11.978;2023-03-25T15:54:31;96164.97;;;11.23;36.83
25350;BME280;13302;48.796;11.978;2023-03-25T15:57:28;96180.38;;;11.24;36.58
25350;BME280;13302;48.796;11.978;2023-03-25T16:03:18;96165.00;;;11.27;36.61
25350;BME280;13302;48.796;11.978;2023-03-25T16:06:07;96180.00;;;11.26;36.77
25350;BME280;13302;48.796;11.978;2023-03-25T16:09:00;96172.88;;;11.25;36.61
25350;BME280;13302;48.796;11.978;2023-03-25T16:11:48;96171.72;;;11.26;36.64
25350;BME280;13302;48.796;11.978;2023-03-25T16:14:35;96172.88;;;11.25;36.61
25350;BME280;13302;48.796;11.978;2023-03-25T16:17:30;96165.75;;;11.24;36.53
25350;BME280;13302;48.796;11.978;2023-03-25T16:20:24;96163.41;;;11.26;36.45
25350;BME280;13302;48.796;11.978;2023-03-25T16:23:18;96168.19;;;11.29;36.58
25350;BME280;13302;48.796;11.978;2023-03-25T16:26:06;96173.00;;;11.32;36.80
25350;BME280;13302;48.796;11.978;2023-03-25T16:28:53;96172.19;;;11.31;36.71
25350;BME280;13302;48.796;11.978;2023-03-25T16:31:40;96174.16;;;11.31;36.83
25350;BME280;13302;48.796;11.978;2023-03-25T16:34:34;96176.13;;;11.30;36.53
25350;BME280;13302;48.796;11.978;2023-03-25T16:37:21;96174.97;;;11.31;36.75
25350;BME280;13302;48.796;11.978;2023-03-25T16:40:14;96167.03;;;11.30;36.83
25350;BME280;13302;48.796;11.978;2023-03-25T16:43:07;96167.03;;;11.30;36.61